Time;durP1;ratioP1;P1;durP2;ratioP2;P2;SDS_P1;SDS_P2;PMS_P1;PMS_P2;Temp;Humidity;BMP_temperature;BMP_pressure;BME280_temperature;BME280_humidity;BME280_pressure;Samples;Min_cycle;Max_cycle;Signal;HPM_P1;HPM_P2
2023/07/05 00:01:12;;;;;;;10.35;1.88;;;;;;;12.27;55.87;100913.75;4964146;28;20394;-68
2023/07/05 00:03:37;;;;;;;2.58;0.60;;;;;;;12.21;56.24;100899.13;4959894;28;20144;-69
2023/07/05 00:06:04;;;;;;;7.28;0.82;;;;;;;12.13;57.06;100893.41;4966738;28;20100;-69
2023/07/05 00:08:31;;;;;;;8.70;0.80;;;;;;;12.07;57.18;100885.84;4958121;28;20050;-69
2023/07/05 00:11:04;;;;;;;5.55;1.23;;;;;;;12.06;57.42;100881.50;4966305;28;20030;-68
2023/07/05 00:13:30;;;;;;;3.85;1.10;;;;;;;12.01;57.75;100880.88;4981147;28;20059;-69
2023/07/05 00:15:56;;;;;;;4.53;0.95;;;;;;;12.16;57.69;100874.94;4963773;28;20042;-69
2023/07/05 00:18:21;;;;;;;9.02;1.55;;;;;;;12.05;57.80;100862.31;4960156;28;20042;-69
2023/07/05 00:20:47;;;;;;;5.57;0.85;;;;;;;12.23;57.33;100865.00;4965446;28;20117;-69
2023/07/05 00:23:12;;;;;;;7.35;0.88;;;;;;;12.21;57.12;100851.97;4961373;28;20151;-69
2023/07/05 00:25:38;;;;;;;5.22;0.88;;;;;;;12.33;57.12;100852.31;4961046;28;20117;-70
2023/07/05 00:28:03;;;;;;;8.80;0.75;;;;;;;12.39;56.92;100854.66;4962250;28;20127;-69
2023/07/05 00:30:29;;;;;;;3.72;1.05;;;;;;;12.43;56.63;100835.25;4961050;28;20030;-69
2023/07/05 00:32:54;;;;;;;8.57;1.05;;;;;;;12.46;56.63;100835.91;4942574;28;20096;-69
2023/07/05 00:35:20;;;;;;;7.68;1.35;;;;;;;12.59;56.13;100830.94;4959919;28;20422;-69
2023/07/05 00:37:46;;;;;;;7.30;1.17;;;;;;;12.60;55.99;100823.91;4959575;28;20042;-73
2023/07/05 00:40:11;;;;;;;11.85;1.75;;;;;;;12.57;56.16;100824.06;4962833;28;20030;-71
2023/07/05 00:42:38;;;;;;;5.85;0.60;;;;;;;12.59;55.87;100815.19;4940298;28;20069;-72
2023/07/05 00:45:09;;;;;;;10.13;1.33;;;;;;;12.68;55.62;100809.50;4950908;28;20539;-72
2023/07/05 00:47:36;;;;;;;7.43;2.25;;;;;;;12.62;55.77;100793.22;4961877;28;20064;-69
2023/07/05 00:50:15;;;;;;;5.85;1.00;;;;;;;12.72;55.92;100784.00;4964246;28;20034;-68
2023/07/05 00:52:42;;;;;;;10.18;0.98;;;;;;;12.75;55.77;100780.38;4960996;28;20209;-69
2023/07/05 00:55:09;;;;;;;8.85;0.95;;;;;;;12.87;55.38;100782.38;4960835;28;20030;-70
2023/07/05 00:57:37;;;;;;;6.35;0.85;;;;;;;12.76;55.43;100779.44;4962462;28;21019;-68
2023/07/05 01:00:08;;;;;;;5.13;1.67;;;;;;;12.82;55.01;100774.72;4962661;28;20484;-71
2023/07/05 01:02:39;;;;;;;6.45;0.88;;;;;;;12.78;55.21;100761.84;4974027;28;20145;-70
2023/07/05 01:05:06;;;;;;;6.57;1.10;;;;;;;12.84;55.29;100753.69;4963966;28;20034;-72
2023/07/05 01:07:32;;;;;;;8.45;1.02;;;;;;;12.80;55.09;100749.50;4958912;28;20294;-71
2023/07/05 01:09:57;;;;;;;4.38;1.08;;;;;;;12.87;55.19;100735.16;4959285;28;20030;-72
2023/07/05 01:12:35;;;;;;;5.45;1.60;;;;;;;12.64;55.60;100728.44;4957401;28;20038;-70
2023/07/05 01:15:27;;;;;;;4.40;0.70;;;;;;;12.73;55.14;100722.75;4976802;28;20077;-71
2023/07/05 01:17:52;;;;;;;;;;;;;;;12.67;55.18;100718.66;4962990;28;20515;-71
2023/07/05 01:20:34;;;;;;;2.05;1.13;;;;;;;12.60;55.77;100706.78;4974508;28;19917;-70
2023/07/05 01:23:22;;;;;;;7.70;1.10;;;;;;;12.61;55.70;100692.75;4964930;28;20038;-69
2023/07/05 01:26:06;;;;;;;1.80;0.80;;;;;;;12.37;55.79;100700.06;4961184;28;20112;-71
2023/07/05 01:28:51;;;;;;;3.05;1.00;;;;;;;12.37;56.24;100694.84;4954811;28;20271;-70
2023/07/05 01:31:42;;;;;;;4.80;1.75;;;;;;;12.26;56.31;100695.38;4961950;28;20133;-73
2023/07/05 01:34:22;;;;;;;3.45;1.27;;;;;;;12.38;55.88;100677.34;4943021;28;20137;-71
2023/07/05 01:36:48;;;;;;;5.15;1.77;;;;;;;12.19;56.49;100680.88;4981625;28;20027;-72
2023/07/05 01:39:14;;;;;;;7.28;2.40;;;;;;;12.27;56.39;100673.50;4957983;28;20041;-72
2023/07/05 01:41:39;;;;;;;4.22;1.63;;;;;;;12.24;56.53;100673.63;4945502;28;20506;-72
2023/07/05 01:44:06;;;;;;;10.45;2.80;;;;;;;12.38;56.30;100666.84;4948492;28;20061;-72
2023/07/05 01:47:07;;;;;;;8.20;2.20;;;;;;;12.43;55.88;100651.75;4960910;28;20107;-71
2023/07/05 01:49:56;;;;;;;9.00;3.05;;;;;;;12.45;55.89;100653.38;4891662;28;22333;-70
2023/07/05 01:52:36;;;;;;;7.90;3.17;;;;;;;12.26;56.30;100631.63;4960524;28;20042;-70
2023/07/05 01:55:15;;;;;;;10.27;3.70;;;;;;;12.31;56.07;100628.78;4966324;28;20062;-71
2023/07/05 01:57:56;;;;;;;7.22;4.07;;;;;;;12.35;56.05;100611.97;4976774;28;20042;-71
2023/07/05 02:00:25;;;;;;;7.97;3.10;;;;;;;12.31;56.08;100602.56;4974052;28;20137;-72
2023/07/05 02:03:07;;;;;;;10.45;3.05;;;;;;;12.33;56.35;100590.25;4963867;28;20054;-71
2023/07/05 02:05:34;;;;;;;7.32;3.08;;;;;;;12.45;56.08;100581.75;4956579;28;20044;-72
2023/07/05 02:08:00;;;;;;;9.65;3.25;;;;;;;12.36;56.63;100582.25;4961150;28;20078;-73
2023/07/05 02:10:26;;;;;;;9.75;3.25;;;;;;;12.33;56.78;100567.50;4959476;28;20686;-74
2023/07/05 02:12:53;;;;;;;10.80;3.97;;;;;;;12.36;56.41;100556.03;4960935;28;20761;-72
2023/07/05 02:15:20;;;;;;;9.15;3.40;;;;;;;12.46;56.20;100555.44;4956530;28;20030;-73
2023/07/05 02:17:46;;;;;;;9.05;4.13;;;;;;;12.46;56.21;100546.75;4940289;28;20710;-71
2023/07/05 02:20:13;;;;;;;8.13;3.50;;;;;;;12.26;56.44;100543.38;4965671;28;20030;-69
2023/07/05 02:22:38;;;;;;;13.77;4.60;;;;;;;12.04;56.60;100550.66;4945506;28;20073;-71
2023/07/05 02:25:05;;;;;;;7.55;3.83;;;;;;;12.15;56.30;100543.09;4962501;28;20172;-68
2023/07/05 02:27:30;;;;;;;14.25;3.72;;;;;;;12.13;56.14;100538.88;4962775;28;20503;-70
2023/07/05 02:29:56;;;;;;;6.13;3.22;;;;;;;12.07;56.17;100546.13;4969233;28;20129;-70
2023/07/05 02:32:22;;;;;;;6.75;3.15;;;;;;;12.29;55.66;100543.25;4962033;28;20038;-69
2023/07/05 02:34:50;;;;;;;8.88;3.08;;;;;;;12.25;55.67;100522.53;4965199;28;20050;-70
2023/07/05 02:37:16;;;;;;;10.32;3.38;;;;;;;12.14;56.09;100517.84;4946974;28;20735;-69
2023/07/05 02:39:42;;;;;;;8.18;3.90;;;;;;;12.15;56.24;100522.13;4981763;28;20114;-69
2023/07/05 02:42:08;;;;;;;6.10;3.40;;;;;;;11.92;56.93;100517.25;4966506;28;20327;-70
2023/07/05 02:44:34;;;;;;;9.73;3.17;;;;;;;11.92;57.20;100505.00;4963624;28;20050;-69
2023/07/05 02:47:00;;;;;;;10.10;3.55;;;;;;;11.62;57.94;100507.38;4971179;28;20030;-70
2023/07/05 02:49:26;;;;;;;11.05;4.35;;;;;;;11.50;58.57;100508.00;4963932;28;20117;-71
2023/07/05 02:51:52;;;;;;;23.70;13.05;;;;;;;11.45;58.92;100506.44;4966329;28;20038;-70
2023/07/05 02:54:18;;;;;;;9.13;5.18;;;;;;;11.30;59.17;100501.13;4967001;28;20042;-71
2023/07/05 02:56:43;;;;;;;11.65;4.50;;;;;;;11.43;59.02;100494.38;4981633;28;20038;-69
2023/07/05 02:59:09;;;;;;;10.55;5.18;;;;;;;11.12;60.44;100482.78;4979494;28;20050;-72
2023/07/05 03:01:35;;;;;;;7.40;4.47;;;;;;;11.22;60.07;100463.13;4961505;28;20771;-70
2023/07/05 03:04:01;;;;;;;12.55;5.10;;;;;;;11.22;60.18;100463.13;4965341;28;20070;-73
2023/07/05 03:06:26;;;;;;;12.98;5.25;;;;;;;11.03;60.91;100460.53;4961452;28;20038;-71
2023/07/05 03:08:52;;;;;;;14.02;5.00;;;;;;;11.25;60.72;100446.41;4961147;28;21665;-71
2023/07/05 03:11:18;;;;;;;12.32;5.45;;;;;;;11.22;60.90;100442.19;4963038;28;20037;-70
2023/07/05 03:13:44;;;;;;;11.75;4.82;;;;;;;11.04;61.39;100443.09;4962097;28;20046;-69
2023/07/05 03:16:09;;;;;;;11.55;5.45;;;;;;;11.29;60.87;100423.59;4963631;28;20038;-69
2023/07/05 03:18:37;;;;;;;11.43;4.85;;;;;;;11.18;61.29;100424.09;4966645;28;20632;-70
2023/07/05 03:21:02;;;;;;;13.20;5.80;;;;;;;11.19;61.42;100415.31;4982119;28;20120;-68
2023/07/05 03:23:28;;;;;;;8.85;4.85;;;;;;;11.17;61.41;100411.94;4981821;28;20768;-68
2023/07/05 03:25:57;;;;;;;9.55;5.70;;;;;;;10.81;62.33;100407.56;4966821;28;20149;-68
2023/07/05 03:28:26;;;;;;;16.42;5.35;;;;;;;10.98;62.04;100389.31;4961799;28;20061;-67
2023/07/05 03:30:56;;;;;;;17.63;6.57;;;;;;;11.01;61.75;100391.78;4965013;28;20137;-68
2023/07/05 03:33:22;;;;;;;8.43;5.78;;;;;;;10.78;62.90;100376.34;4962573;28;20038;-66
2023/07/05 03:35:58;;;;;;;10.82;5.45;;;;;;;10.86;62.71;100379.47;4966070;28;20132;-67
2023/07/05 03:38:26;;;;;;;13.38;5.75;;;;;;;10.90;62.33;100357.47;4966904;28;20056;-68
2023/07/05 03:41:06;;;;;;;16.05;6.40;;;;;;;10.96;62.10;100353.72;4969085;28;20045;-74
2023/07/05 03:43:35;;;;;;;11.07;5.32;;;;;;;10.74;63.06;100341.66;4966950;28;20054;-72
2023/07/05 03:46:03;;;;;;;11.02;6.43;;;;;;;10.88;62.82;100325.31;4972060;28;20324;-73
2023/07/05 03:48:31;;;;;;;10.93;6.43;;;;;;;10.94;62.71;100322.41;4966618;28;20046;-69
2023/07/05 03:50:58;;;;;;;14.90;5.72;;;;;;;10.93;62.76;100320.72;4969987;28;20449;-67
2023/07/05 03:53:24;;;;;;;15.90;6.18;;;;;;;10.81;63.21;100311.72;4967779;28;20054;-72
2023/07/05 03:55:50;;;;;;;16.10;5.93;;;;;;;11.03;62.57;100311.47;4987188;28;20677;-73
2023/07/05 03:58:16;;;;;;;16.50;6.82;;;;;;;11.10;62.32;100300.72;4967124;28;20077;-71
2023/07/05 04:00:41;;;;;;;19.38;6.82;;;;;;;11.12;62.13;100298.88;4967465;28;20121;-69
2023/07/05 04:03:07;;;;;;;10.07;5.95;;;;;;;11.08;62.35;100297.31;4968923;28;20078;-70
2023/07/05 04:05:34;;;;;;;11.13;5.75;;;;;;;10.79;63.29;100287.41;4960383;28;20031;-70
2023/07/05 04:07:59;;;;;;;11.02;6.82;;;;;;;10.84;63.41;100287.22;4965578;28;20057;-71
2023/07/05 04:10:26;;;;;;;18.70;6.72;;;;;;;10.97;62.70;100285.66;4968109;28;20038;-73
2023/07/05 04:12:51;;;;;;;13.30;6.05;;;;;;;11.07;62.70;100279.97;4971411;28;20760;-71
2023/07/05 04:15:17;;;;;;;15.68;5.88;;;;;;;10.98;62.97;100270.81;4967848;28;20035;-67
2023/07/05 04:17:42;;;;;;;10.82;6.75;;;;;;;10.92;62.85;100265.88;4967148;28;20125;-69
2023/07/05 04:20:08;;;;;;;15.80;7.43;;;;;;;10.93;63.00;100268.44;4965051;28;20037;-69
2023/07/05 04:22:39;;;;;;;15.38;6.82;;;;;;;10.95;63.24;100250.91;4964308;28;20699;-73
2023/07/05 04:25:05;;;;;;;15.70;7.20;;;;;;;10.91;63.08;100238.06;4969021;28;20443;-71
2023/07/05 04:27:31;;;;;;;16.10;6.93;;;;;;;10.87;63.04;100226.06;4962917;28;20129;-70
2023/07/05 04:29:56;;;;;;;10.52;6.22;;;;;;;10.66;63.85;100210.53;4983660;28;20044;-72
2023/07/05 04:32:21;;;;;;;14.32;6.75;;;;;;;10.65;63.93;100211.44;4968268;28;20751;-73
2023/07/05 04:34:47;;;;;;;10.38;5.68;;;;;;;10.63;64.16;100208.91;4964013;28;20141;-72
2023/07/05 04:37:12;;;;;;;12.43;6.40;;;;;;;10.46;64.74;100210.69;4968442;28;20566;-72
2023/07/05 04:39:38;;;;;;;11.98;6.93;;;;;;;10.79;63.68;100201.16;4980032;28;20030;-71
2023/07/05 04:42:04;;;;;;;10.82;7.28;;;;;;;10.74;64.11;100203.13;4948330;28;20734;-70
2023/07/05 04:44:29;;;;;;;11.15;6.43;;;;;;;10.80;63.96;100184.53;4944264;28;20045;-70
2023/07/05 04:46:55;;;;;;;12.35;7.15;;;;;;;10.70;64.34;100182.47;4961192;28;20253;-70
2023/07/05 04:49:20;;;;;;;12.13;6.68;;;;;;;10.75;64.43;100181.31;4966215;28;20487;-70
2023/07/05 04:51:46;;;;;;;12.57;7.00;;;;;;;10.74;64.11;100178.78;4964080;28;20088;-70
2023/07/05 04:54:13;;;;;;;15.57;6.90;;;;;;;10.57;64.95;100185.72;4968243;28;20125;-69
2023/07/05 04:56:38;;;;;;;13.25;7.00;;;;;;;10.90;63.94;100182.28;4965021;28;20042;-69
2023/07/05 04:59:03;;;;;;;11.55;7.40;;;;;;;10.78;64.23;100172.47;4965757;28;20169;-70
2023/07/05 05:01:29;;;;;;;10.27;6.60;;;;;;;10.75;64.58;100168.25;4965298;28;20039;-69
2023/07/05 05:03:54;;;;;;;11.15;6.40;;;;;;;10.91;64.02;100170.94;4964512;28;20732;-69
2023/07/05 05:06:20;;;;;;;13.20;6.32;;;;;;;10.75;64.61;100164.75;4967307;28;20038;-70
2023/07/05 05:08:46;;;;;;;12.07;6.22;;;;;;;10.72;64.32;100154.47;4966657;28;20050;-70
2023/07/05 05:11:11;;;;;;;9.40;5.95;;;;;;;10.81;64.72;100151.38;4968581;28;20780;-70
2023/07/05 05:13:37;;;;;;;13.73;6.80;;;;;;;10.98;63.67;100156.59;4962464;28;20046;-70
2023/07/05 05:16:03;;;;;;;12.27;6.47;;;;;;;11.15;63.27;100153.09;4967193;28;20033;-70
2023/07/05 05:18:31;;;;;;;11.77;6.32;;;;;;;11.01;63.43;100152.97;4965830;28;20208;-70
2023/07/05 05:20:58;;;;;;;10.23;6.38;;;;;;;11.22;63.08;100149.22;4947802;28;20092;-70
2023/07/05 05:23:24;;;;;;;9.43;5.38;;;;;;;11.39;62.32;100135.19;4963450;28;20802;-70
2023/07/05 05:25:50;;;;;;;10.10;6.30;;;;;;;11.38;62.81;100137.91;4963195;28;20037;-70
2023/07/05 05:28:16;;;;;;;9.65;6.03;;;;;;;11.54;62.46;100128.28;4962645;28;20140;-70
2023/07/05 05:30:43;;;;;;;13.15;6.88;;;;;;;11.37;63.00;100139.66;4965434;28;20161;-70
2023/07/05 05:33:10;;;;;;;11.95;5.53;;;;;;;11.44;62.64;100127.09;4965064;28;20041;-69
2023/07/05 05:35:36;;;;;;;12.48;6.07;;;;;;;11.28;63.66;100127.09;4963953;28;20038;-70
2023/07/05 05:38:03;;;;;;;10.60;7.30;;;;;;;11.33;63.52;100140.78;4961817;28;20375;-70
2023/07/05 05:40:29;;;;;;;11.65;6.72;;;;;;;11.81;62.05;100141.59;4949814;28;20165;-71
2023/07/05 05:42:57;;;;;;;11.38;6.15;;;;;;;11.88;61.96;100137.72;4981143;28;20092;-70
2023/07/05 05:45:22;;;;;;;12.38;5.60;;;;;;;11.93;61.95;100144.47;4968992;28;20102;-70
2023/07/05 05:47:48;;;;;;;8.55;5.93;;;;;;;11.99;61.57;100138.88;4964377;28;20046;-70
2023/07/05 05:50:14;;;;;;;9.48;6.28;;;;;;;11.93;62.09;100140.06;4968859;28;20117;-70
2023/07/05 05:52:40;;;;;;;11.07;5.43;;;;;;;12.20;61.40;100134.16;4966291;28;20554;-70
2023/07/05 05:55:06;;;;;;;8.23;6.10;;;;;;;12.28;61.41;100139.78;4968155;28;20483;-70
2023/07/05 05:57:32;;;;;;;8.40;5.82;;;;;;;12.04;62.11;100157.78;4965118;28;20937;-69
2023/07/05 05:59:57;;;;;;;11.85;5.35;;;;;;;12.11;61.96;100150.41;4978835;28;20044;-70
2023/07/05 06:02:23;;;;;;;11.98;5.95;;;;;;;12.36;61.35;100145.44;4963952;28;20170;-70
2023/07/05 06:04:48;;;;;;;6.80;5.03;;;;;;;12.68;60.57;100151.38;4963287;28;20038;-70
2023/07/05 06:07:13;;;;;;;8.32;5.25;;;;;;;12.81;60.33;100148.88;4968881;28;20042;-69
2023/07/05 06:09:49;;;;;;;6.20;4.55;;;;;;;13.01;59.83;100149.44;4965144;28;20050;-70
2023/07/05 06:12:15;;;;;;;10.25;4.20;;;;;;;12.95;59.77;100145.41;4967317;28;20050;-69
2023/07/05 06:14:40;;;;;;;8.43;4.70;;;;;;;13.29;59.54;100145.94;4965149;28;20045;-69
2023/07/05 06:17:06;;;;;;;9.30;4.50;;;;;;;12.64;61.13;100144.63;4953373;28;20580;-69
2023/07/05 06:19:32;;;;;;;11.77;4.47;;;;;;;13.28;59.65;100142.47;4967098;28;20042;-69
2023/07/05 06:21:59;;;;;;;10.13;4.88;;;;;;;13.43;58.99;100145.03;4964180;28;20994;-69
2023/07/05 06:24:24;;;;;;;9.93;5.28;;;;;;;13.30;59.28;100148.47;4967858;28;20363;-69
2023/07/05 06:26:50;;;;;;;10.20;4.32;;;;;;;13.55;58.98;100138.19;4950834;28;20585;-71
2023/07/05 06:29:15;;;;;;;6.00;4.35;;;;;;;13.53;58.31;100135.66;4967383;28;20042;-68
2023/07/05 06:31:41;;;;;;;8.68;4.18;;;;;;;13.45;59.12;100141.41;4964787;28;20092;-69
2023/07/05 06:34:06;;;;;;;7.85;3.47;;;;;;;12.84;59.42;100145.22;4968768;28;20050;-69
2023/07/05 06:36:32;;;;;;;4.05;2.15;;;;;;;12.93;57.98;100147.28;4980606;28;20065;-69
2023/07/05 06:38:58;;;;;;;3.92;1.95;;;;;;;12.37;57.31;100151.50;4946230;28;20050;-68
2023/07/05 06:41:23;;;;;;;9.73;2.60;;;;;;;13.00;54.92;100139.88;4981582;28;20054;-69
2023/07/05 06:43:49;;;;;;;2.70;1.70;;;;;;;12.72;55.29;100143.38;4966057;28;20066;-70
2023/07/05 06:46:14;;;;;;;4.13;1.42;;;;;;;13.38;54.28;100141.88;4967710;28;20038;-68
2023/07/05 06:48:40;;;;;;;5.40;1.63;;;;;;;14.02;52.57;100142.16;4963232;28;20141;-70
2023/07/05 06:51:05;;;;;;;1.83;1.10;;;;;;;16.38;47.05;100135.13;4968483;28;20274;-68
2023/07/05 06:53:30;;;;;;;3.33;1.55;;;;;;;19.35;40.96;100126.66;4969950;28;20395;-71
2023/07/05 06:55:56;;;;;;;3.08;1.75;;;;;;;17.96;40.68;100133.16;4971132;28;20030;-69
2023/07/05 06:58:22;;;;;;;4.03;1.17;;;;;;;19.25;38.45;100129.25;4969586;28;20133;-69
2023/07/05 07:00:49;;;;;;;3.25;0.90;;;;;;;19.85;38.40;100129.22;4969567;28;20172;-69
2023/07/05 07:03:16;;;;;;;5.38;1.73;;;;;;;19.49;36.57;100139.47;4968339;28;20069;-69
2023/07/05 07:05:51;;;;;;;3.53;0.80;;;;;;;19.99;35.01;100128.75;4970836;28;20042;-70
2023/07/05 07:08:17;;;;;;;1.50;0.80;;;;;;;19.29;35.97;100126.19;4967014;28;20149;-69
2023/07/05 07:10:42;;;;;;;2.47;1.33;;;;;;;17.58;38.40;100142.44;4968568;28;20038;-68
2023/07/05 07:13:07;;;;;;;2.97;1.20;;;;;;;17.59;39.49;100133.53;4969077;28;20038;-69
2023/07/05 07:15:33;;;;;;;2.92;1.38;;;;;;;18.71;36.41;100119.84;4967846;28;20054;-69
2023/07/05 07:17:59;;;;;;;3.63;0.90;;;;;;;18.44;36.57;100124.72;4983526;28;20065;-69
2023/07/05 07:20:25;;;;;;;1.95;0.73;;;;;;;18.91;35.88;100116.34;4967269;28;20654;-69
2023/07/05 07:22:52;;;;;;;5.25;0.85;;;;;;;19.12;35.68;100140.09;4966124;28;20678;-70
2023/07/05 07:25:17;;;;;;;1.98;1.33;;;;;;;19.00;35.11;100126.13;4967726;28;20034;-69
2023/07/05 07:27:43;;;;;;;3.03;1.55;;;;;;;20.56;34.27;100120.03;4968290;28;20053;-69
2023/07/05 07:30:10;;;;;;;3.65;0.82;;;;;;;19.99;33.26;100127.94;4982811;28;20073;-69
2023/07/05 07:32:36;;;;;;;2.47;0.43;;;;;;;18.82;34.74;100135.66;4968897;28;20124;-69
2023/07/05 07:35:02;;;;;;;1.75;0.77;;;;;;;18.79;35.68;100126.16;4969333;28;20445;-68
2023/07/05 07:37:30;;;;;;;4.78;1.33;;;;;;;18.17;35.82;100122.59;4967811;28;20034;-68
2023/07/05 07:39:55;;;;;;;2.10;1.05;;;;;;;18.03;36.69;100126.41;4968244;28;20805;-70
2023/07/05 07:42:21;;;;;;;3.30;0.80;;;;;;;17.68;35.51;100121.38;4968234;28;20039;-70
2023/07/05 07:44:47;;;;;;;2.22;0.50;;;;;;;19.99;33.87;100109.38;4967495;28;20034;-69
2023/07/05 07:47:12;;;;;;;1.77;0.77;;;;;;;20.36;32.55;100112.13;4984051;28;20089;-69
2023/07/05 07:49:37;;;;;;;3.75;1.13;;;;;;;19.37;34.06;100112.28;4970651;28;20032;-69
2023/07/05 07:52:03;;;;;;;2.40;1.00;;;;;;;20.03;34.12;100113.41;4966874;28;20392;-69
2023/07/05 07:54:31;;;;;;;2.45;0.80;;;;;;;18.82;35.54;100123.25;4963722;28;20213;-70
2023/07/05 07:56:57;;;;;;;2.92;1.52;;;;;;;17.20;37.13;100133.13;4950911;28;20442;-69
2023/07/05 07:59:23;;;;;;;3.40;1.10;;;;;;;19.22;34.98;100118.94;4981441;28;20038;-69
2023/07/05 08:01:49;;;;;;;3.08;0.90;;;;;;;20.12;33.64;100113.41;4981427;28;20062;-70
2023/07/05 08:04:15;;;;;;;3.38;0.90;;;;;;;19.36;33.62;100113.22;4967315;28;20133;-68
2023/07/05 08:06:45;;;;;;;3.25;0.70;;;;;;;19.97;31.95;100106.03;4967779;28;20053;-68
2023/07/05 08:09:16;;;;;;;2.97;1.02;;;;;;;18.13;35.33;100096.53;4965503;28;20046;-69
2023/07/05 08:11:42;;;;;;;3.15;0.98;;;;;;;20.80;32.88;100101.78;4965111;28;20494;-68
2023/07/05 08:14:09;;;;;;;4.47;0.93;;;;;;;19.34;34.02;100101.94;4964765;28;20061;-69
2023/07/05 08:16:35;;;;;;;3.08;1.10;;;;;;;18.69;34.58;100107.56;4983163;28;20041;-69
2023/07/05 08:19:01;;;;;;;3.03;1.17;;;;;;;18.39;35.55;100097.84;4961433;28;20050;-68
2023/07/05 08:21:27;;;;;;;2.47;0.75;;;;;;;20.06;32.59;100091.91;4963989;28;20034;-69
2023/07/05 08:23:52;;;;;;;2.63;0.82;;;;;;;20.36;32.30;100104.16;4963654;28;20102;-74
2023/07/05 08:26:18;;;;;;;1.98;1.20;;;;;;;19.96;31.78;100083.97;4965767;28;20827;-72
2023/07/05 08:28:44;;;;;;;5.28;1.13;;;;;;;19.64;31.86;100090.44;4976799;28;20097;-72
2023/07/05 08:31:10;;;;;;;3.70;1.00;;;;;;;18.85;33.71;100079.78;4982702;28;20121;-73
2023/07/05 08:33:36;;;;;;;2.97;0.75;;;;;;;18.40;34.14;100091.56;4966421;28;20529;-71
2023/07/05 08:36:32;;;;;;;1.77;0.68;;;;;;;18.71;34.76;100088.91;4980617;28;20045;-72
2023/07/05 08:38:59;;;;;;;4.32;1.15;;;;;;;17.58;35.62;100079.03;4963320;28;20566;-72
2023/07/05 08:41:41;;;;;;;5.35;1.35;;;;;;;16.74;37.37;100089.22;4964364;28;20336;-71
2023/07/05 08:44:24;;;;;;;3.55;1.10;;;;;;;16.71;37.83;100089.47;4966905;28;20391;-72
2023/07/05 08:46:57;;;;;;;4.72;0.98;;;;;;;16.30;38.52;100072.41;4968168;28;20042;-71
2023/07/05 08:49:30;;;;;;;1.48;1.00;;;;;;;16.11;38.97;100078.28;4968647;28;20111;-71
2023/07/05 08:51:56;;;;;;;3.75;1.65;;;;;;;18.34;35.09;100054.22;4965209;28;20038;-72
2023/07/05 08:54:31;;;;;;;3.53;0.80;;;;;;;18.58;34.33;100061.84;4962631;28;20050;-72
2023/07/05 08:57:03;;;;;;;1.90;0.80;;;;;;;19.66;31.77;100055.84;4965183;28;20045;-72
2023/07/05 08:59:38;;;;;;;6.47;0.82;;;;;;;19.61;31.71;100039.50;4963911;28;20542;-72
2023/07/05 09:02:09;;;;;;;3.30;0.70;;;;;;;19.88;30.57;100025.50;4962758;28;20046;-72
2023/07/05 09:04:35;;;;;;;1.60;0.70;;;;;;;19.55;31.02;100030.31;4961291;28;20590;-71
2023/07/05 09:07:20;;;;;;;4.20;0.82;;;;;;;19.04;32.85;100036.66;4964714;28;20126;-71
2023/07/05 09:10:09;;;;;;;5.82;0.50;;;;;;;16.91;36.11;100047.50;4961326;28;20543;-70
2023/07/05 09:12:46;;;;;;;1.83;0.85;;;;;;;18.18;34.67;100050.19;4958415;28;20137;-71
2023/07/05 09:15:18;;;;;;;2.35;0.50;;;;;;;17.70;34.02;100020.84;4960947;28;20089;-70
2023/07/05 09:17:46;;;;;;;1.95;0.40;;;;;;;16.69;36.18;100046.53;4958463;28;20125;-69
2023/07/05 09:20:44;;;;;;;1.58;0.20;;;;;;;13.33;41.49;100051.16;4978211;28;20130;-70
2023/07/05 09:23:22;;;;;;;0.13;0.05;;;;;;;12.08;44.95;100075.47;4959217;28;20184;-69
2023/07/05 09:25:53;;;;;;;1.60;0.15;;;;;;;12.36;47.94;100058.13;4962091;28;20121;-70
2023/07/05 09:28:34;;;;;;;2.10;0.32;;;;;;;12.70;49.04;100051.69;4960808;28;20513;-70
2023/07/05 09:30:59;;;;;;;1.42;0.52;;;;;;;12.07;51.63;100051.06;4964155;28;20491;-70
2023/07/05 09:33:34;;;;;;;2.42;0.63;;;;;;;12.72;50.54;100048.97;4963395;28;20057;-71
2023/07/05 09:36:08;;;;;;;2.45;0.35;;;;;;;13.31;49.11;100018.09;4964871;28;20521;-69
2023/07/05 09:38:43;;;;;;;3.28;0.50;;;;;;;13.78;46.66;100026.41;4963932;28;20101;-68
2023/07/05 09:41:16;;;;;;;1.02;0.40;;;;;;;14.18;45.73;100016.66;4963035;28;20050;-69
2023/07/05 09:43:42;;;;;;;1.40;0.20;;;;;;;14.34;44.29;100004.16;4964885;28;20066;-70
2023/07/05 09:46:25;;;;;;;2.45;0.88;;;;;;;13.49;45.22;99981.91;4962373;28;20038;-68
2023/07/05 09:48:51;;;;;;;2.35;0.55;;;;;;;13.58;44.91;99991.00;4960141;28;20098;-69
2023/07/05 09:51:17;;;;;;;3.72;0.20;;;;;;;13.58;43.93;99938.47;4960504;28;20030;-68
2023/07/05 09:53:59;;;;;;;1.38;0.20;;;;;;;12.94;44.73;99991.63;4946853;28;20329;-68
2023/07/05 09:56:28;;;;;;;1.25;0.28;;;;;;;13.11;45.46;99961.66;4962967;28;20069;-69
2023/07/05 09:59:17;;;;;;;4.40;0.20;;;;;;;12.61;46.48;99956.06;4980880;28;20070;-69
2023/07/05 10:01:48;;;;;;;4.03;0.30;;;;;;;12.54;47.17;99975.75;4963987;28;20042;-69
2023/07/05 10:04:15;;;;;;;5.03;0.40;;;;;;;12.14;47.84;99949.38;4964110;28;20053;-70
2023/07/05 10:06:44;;;;;;;1.63;0.20;;;;;;;11.56;49.71;99934.53;4949388;28;20823;-69
2023/07/05 10:09:16;;;;;;;5.72;0.20;;;;;;;11.17;50.06;99928.06;4962732;28;20082;-68
2023/07/05 10:11:48;;;;;;;1.02;0.10;;;;;;;11.41;49.18;99929.25;4960814;28;20069;-67
2023/07/05 10:14:15;;;;;;;;;;;;;;;11.05;49.87;99912.16;4962256;28;20741;-68
2023/07/05 10:16:52;;;;;;;3.97;0.90;;;;;;;11.42;50.09;99904.78;4964831;28;20005;-69
2023/07/05 10:19:25;;;;;;;0.90;0.10;;;;;;;10.37;52.76;99878.50;4955983;28;20500;-71
2023/07/05 10:22:15;;;;;;;0.82;0.13;;;;;;;11.08;51.57;99899.84;4960237;28;21540;-67
2023/07/05 10:24:53;;;;;;;1.63;0.20;;;;;;;10.71;52.09;99896.69;4964525;28;20051;-69
2023/07/05 10:27:19;;;;;;;0.95;0.13;;;;;;;10.62;53.44;99885.81;4965104;28;20070;-68
2023/07/05 10:29:48;;;;;;;1.42;0.10;;;;;;;10.41;54.61;99885.25;4966205;28;20048;-69
2023/07/05 10:32:19;;;;;;;0.80;0.30;;;;;;;9.39;58.34;99884.50;4960165;28;20038;-71
2023/07/05 10:34:49;;;;;;;1.38;0.20;;;;;;;9.82;57.99;99867.56;4980926;28;20049;-69
2023/07/05 10:37:33;;;;;;;4.22;0.20;;;;;;;9.36;59.45;99860.31;4963342;28;20054;-70
2023/07/05 10:40:03;;;;;;;0.75;0.20;;;;;;;9.35;59.43;99861.25;4968939;28;20665;-69
2023/07/05 10:42:30;;;;;;;1.33;0.40;;;;;;;9.27;59.65;99864.22;4969761;28;20680;-69
2023/07/05 10:44:56;;;;;;;1.40;0.30;;;;;;;9.31;60.03;99829.25;4967237;28;20509;-70
2023/07/05 10:47:22;;;;;;;0.77;0.20;;;;;;;9.39;59.77;99837.53;4981658;28;20038;-69
2023/07/05 10:49:52;;;;;;;0.88;0.10;;;;;;;9.40;60.06;99812.28;4973111;28;20030;-69
2023/07/05 10:52:19;;;;;;;1.20;0.20;;;;;;;8.87;61.49;99828.88;4966887;28;20129;-69
2023/07/05 10:54:53;;;;;;;1.10;0.20;;;;;;;9.37;60.28;99826.34;4970481;28;20035;-69
2023/07/05 10:57:24;;;;;;;0.95;0.40;;;;;;;9.37;60.11;99809.88;4965903;28;20038;-69
2023/07/05 10:59:58;;;;;;;0.90;0.30;;;;;;;9.48;59.82;99809.31;4972592;28;20041;-70
2023/07/05 11:02:38;;;;;;;0.30;0.10;;;;;;;9.63;59.00;99813.69;4968322;28;20042;-70
2023/07/05 11:05:30;;;;;;;1.05;0.20;;;;;;;10.26;57.42;99799.03;4969773;28;20092;-71
2023/07/05 11:08:01;;;;;;;0.50;0.17;;;;;;;10.33;56.07;99782.09;4968463;28;20120;-70
2023/07/05 11:10:33;;;;;;;0.57;0.20;;;;;;;10.83;54.92;99791.44;4965944;28;20240;-70
2023/07/05 11:12:59;;;;;;;3.65;0.20;;;;;;;10.77;54.06;99782.19;4972632;28;20074;-70
2023/07/05 11:15:25;;;;;;;0.50;0.30;;;;;;;10.96;53.80;99776.72;4969299;28;20105;-70
2023/07/05 11:17:51;;;;;;;0.57;0.10;;;;;;;11.19;53.88;99783.19;4968056;28;20479;-71
2023/07/05 11:20:36;;;;;;;2.25;0.47;;;;;;;11.45;53.10;99779.00;4968826;28;20034;-70
2023/07/05 11:23:02;;;;;;;3.60;0.15;;;;;;;11.07;53.44;99788.34;4968173;28;20061;-70
2023/07/05 11:25:52;;;;;;;2.47;0.20;;;;;;;11.72;52.30;99796.56;4964961;28;20245;-69
2023/07/05 11:28:34;;;;;;;0.98;0.47;;;;;;;11.63;52.29;99791.91;4968875;28;20077;-69
2023/07/05 11:31:01;;;;;;;10.98;0.82;;;;;;;10.97;54.04;99788.88;4969111;28;20042;-69
2023/07/05 11:33:26;;;;;;;1.73;0.10;;;;;;;11.46;52.74;99783.31;4946913;28;20053;-69